createdAt,value
2022-11-14T00:03:03.471Z,1.00
2022-11-14T00:08:08.020Z,1.00
2022-11-14T00:13:10.771Z,1.00
2022-11-14T00:18:13.627Z,1.00
2022-11-14T00:23:17.894Z,1.00
2022-11-14T00:28:20.607Z,1.00
2022-11-14T00:33:23.380Z,1.00
2022-11-14T00:38:27.824Z,1.00
2022-11-14T00:43:30.828Z,15.40
2022-11-14T00:48:33.609Z,1.00
2022-11-14T00:53:37.796Z,1.00
2022-11-14T00:58:40.574Z,1.00
2022-11-14T01:03:43.331Z,1.00
2022-11-14T01:08:47.687Z,1.00
2022-11-14T01:13:50.501Z,1.00
2022-11-14T01:18:53.241Z,1.00
2022-11-14T01:23:57.450Z,1.00
2022-11-14T01:29:00.204Z,1.00
2022-11-14T01:34:03.145Z,1.00
2022-11-14T01:39:07.246Z,1.00
2022-11-14T01:44:14.405Z,1.00
2022-11-14T01:49:21.674Z,1.00
2022-11-14T01:54:28.893Z,1.00
2022-11-14T01:59:35.107Z,1.00
2022-11-14T02:04:42.006Z,1.00
2022-11-14T02:09:48.105Z,1.00
2022-11-14T02:14:55.575Z,1.00
2022-11-14T02:20:07.236Z,1.00
2022-11-14T02:25:11.907Z,1.00
2022-11-14T02:30:17.116Z,1.00
2022-11-14T02:35:21.217Z,1.00
2022-11-14T02:40:23.961Z,1.00
2022-11-14T02:45:27.124Z,1.00
2022-11-14T02:50:31.219Z,1.00
2022-11-14T02:55:33.962Z,1.00
2022-11-14T03:00:53.305Z,1.00
2022-11-14T03:06:03.021Z,1.00
2022-11-14T03:11:06.813Z,1.00
2022-11-14T03:16:11.761Z,1.00
2022-11-14T03:21:17.579Z,1.00
2022-11-14T03:26:20.368Z,1.00
2022-11-14T03:31:23.299Z,1.00
2022-11-14T03:36:27.395Z,1.00
2022-11-14T03:41:30.169Z,1.00
2022-11-14T03:46:33.084Z,1.00
2022-11-14T03:51:37.191Z,1.00
2022-11-14T03:56:40.038Z,1.00
2022-11-14T04:01:42.861Z,1.00
2022-11-14T04:06:47.069Z,1.00
2022-11-14T04:11:49.876Z,1.00
2022-11-14T04:16:52.740Z,1.00
2022-11-14T04:21:56.804Z,1.00
2022-11-14T04:26:59.805Z,1.00
2022-11-14T04:32:02.549Z,1.00
2022-11-14T04:37:06.610Z,1.00
2022-11-14T04:42:09.441Z,1.00
2022-11-14T04:47:12.340Z,1.00
2022-11-14T04:52:16.580Z,1.00
2022-11-14T04:57:19.361Z,1.00
2022-11-14T05:02:22.137Z,1.00
2022-11-14T05:07:26.287Z,1.00
2022-11-14T05:12:29.149Z,1.00
2022-11-14T05:17:31.876Z,1.00
2022-11-14T05:22:35.946Z,1.00
2022-11-14T05:27:38.730Z,1.00
2022-11-14T05:32:41.482Z,1.00
2022-11-14T05:37:45.533Z,1.00
2022-11-14T05:42:48.268Z,1.00
2022-11-14T05:47:53.724Z,1.00
2022-11-14T05:52:58.796Z,1.00
2022-11-14T05:58:01.963Z,1.00
2022-11-14T06:03:04.732Z,1.00
2022-11-14T06:08:08.793Z,1.00
2022-11-14T06:13:11.517Z,1.00
2022-11-14T06:18:14.296Z,1.00
2022-11-14T06:23:23.446Z,1.00
2022-11-14T06:28:27.697Z,1.00
2022-11-14T06:33:34.534Z,47.50
2022-11-14T06:38:40.066Z,6.50
2022-11-14T06:43:44.399Z,1.00
2022-11-14T06:48:48.972Z,1.00
2022-11-14T06:53:53.082Z,1.00
2022-11-14T06:58:55.914Z,1.00
2022-11-14T07:04:00.528Z,1.00
2022-11-14T07:09:05.428Z,1.00
2022-11-14T07:14:08.269Z,1.00
2022-11-14T07:19:11.107Z,99.90
2022-11-14T07:24:15.300Z,1.00
2022-11-14T07:29:18.020Z,1.00
2022-11-14T07:34:20.738Z,1.00
2022-11-14T07:39:25.009Z,1.00
2022-11-14T07:44:27.724Z,99.90
2022-11-14T07:49:30.459Z,99.90
2022-11-14T07:54:34.483Z,1.00
2022-11-14T07:59:37.211Z,1.00
2022-11-14T08:04:39.973Z,1.00
2022-11-14T08:09:44.146Z,1.00
2022-11-14T08:14:46.971Z,1.00
2022-11-14T08:19:49.789Z,33.20
2022-11-14T08:24:53.939Z,99.90
2022-11-14T08:29:56.710Z,99.90
2022-11-14T08:34:59.470Z,1.00
2022-11-14T08:40:04.176Z,1.00
2022-11-14T08:45:07.975Z,1.00
2022-11-14T08:50:10.903Z,1.00
2022-11-14T08:55:15.149Z,1.00
2022-11-14T09:00:18.529Z,1.00
2022-11-14T09:05:21.396Z,1.00
2022-11-14T09:10:26.139Z,1.00
2022-11-14T09:15:29.521Z,1.00
2022-11-14T09:20:37.410Z,1.00
2022-11-14T09:25:44.035Z,1.00
2022-11-14T09:30:47.117Z,1.00
2022-11-14T09:35:52.268Z,1.00
2022-11-14T09:41:05.191Z,1.00
2022-11-14T09:46:19.516Z,1.00
2022-11-14T09:51:25.393Z,1.00
2022-11-14T09:56:30.129Z,1.00
2022-11-14T10:01:44.699Z,1.00
2022-11-14T10:06:59.675Z,1.00
2022-11-14T10:12:12.886Z,1.00
2022-11-14T10:17:34.883Z,1.00
2022-11-14T10:22:53.020Z,1.00
2022-11-14T10:28:21.037Z,1.00
2022-11-14T10:33:34.976Z,1.00
2022-11-14T10:38:43.306Z,1.00
2022-11-14T10:43:49.798Z,1.00
2022-11-14T10:48:57.584Z,1.00
2022-11-14T10:54:11.922Z,1.00
2022-11-14T10:59:16.384Z,1.00
2022-11-14T11:04:27.386Z,1.00
2022-11-14T11:09:50.143Z,1.00
2022-11-14T11:15:15.022Z,1.00
2022-11-14T11:20:31.629Z,1.00
2022-11-14T11:25:35.270Z,1.00
2022-11-14T11:30:40.423Z,1.00
2022-11-14T11:35:44.646Z,1.00
2022-11-14T11:40:51.541Z,1.00
2022-11-14T11:45:57.256Z,1.00
2022-11-14T11:51:04.104Z,1.00
2022-11-14T11:56:12.576Z,1.00
2022-11-14T12:01:17.749Z,1.00
2022-11-14T12:06:24.945Z,1.00
2022-11-14T12:11:32.115Z,1.00
2022-11-14T12:17:00.587Z,1.00
2022-11-14T12:22:21.742Z,1.00
2022-11-14T12:27:39.141Z,1.00
2022-11-14T12:32:47.795Z,1.00
2022-11-14T12:37:55.797Z,1.00
2022-11-14T12:43:00.850Z,1.00
2022-11-14T12:48:23.183Z,1.00
2022-11-14T12:53:42.056Z,1.00
2022-11-14T12:59:06.196Z,1.00
2022-11-14T13:04:20.986Z,1.00
2022-11-14T13:09:34.776Z,1.00
2022-11-14T13:15:08.088Z,1.00
2022-11-14T13:20:50.199Z,1.00
2022-11-14T13:26:46.403Z,1.00
2022-11-14T13:31:51.721Z,1.00
2022-11-14T13:37:00.767Z,1.00
2022-11-14T13:42:21.451Z,90.80
2022-11-14T13:47:46.529Z,99.90
2022-11-14T13:52:51.130Z,1.00
2022-11-14T13:58:08.389Z,1.00
2022-11-14T14:03:28.116Z,1.00
2022-11-14T14:08:50.465Z,1.00
2022-11-14T14:14:01.286Z,1.00
2022-11-14T14:19:13.530Z,99.90
2022-11-14T14:24:32.724Z,1.00
2022-11-14T14:29:46.216Z,1.00
2022-11-14T14:34:49.027Z,1.00
2022-11-14T14:40:01.577Z,16.30
2022-11-14T14:45:06.370Z,1.00
2022-11-14T14:50:18.363Z,1.00
2022-11-14T14:55:24.643Z,1.00
2022-11-14T15:00:29.529Z,99.90
2022-11-14T15:05:32.639Z,1.00
2022-11-14T15:10:37.136Z,1.00
2022-11-14T15:15:40.570Z,1.00
2022-11-14T15:20:43.330Z,1.00
2022-11-14T15:25:47.887Z,99.90
2022-11-14T15:30:59.637Z,1.00
2022-11-14T15:36:11.635Z,6.50
2022-11-14T15:41:26.705Z,99.90
2022-11-14T15:46:44.395Z,1.00
2022-11-14T15:51:49.254Z,81.80
2022-11-14T15:56:54.232Z,1.00
2022-11-14T16:02:00.361Z,1.00
2022-11-14T16:07:03.563Z,99.90
2022-11-14T16:12:08.540Z,1.00
2022-11-14T16:17:14.749Z,1.00
2022-11-14T16:22:19.187Z,1.00
2022-11-14T16:27:23.651Z,1.00
2022-11-14T16:32:28.208Z,1.00
2022-11-14T16:37:31.016Z,1.00
2022-11-14T16:42:35.979Z,99.90
2022-11-14T16:47:40.107Z,99.90
2022-11-14T16:52:43.852Z,99.90
2022-11-14T16:57:49.673Z,99.90
2022-11-14T17:02:53.523Z,1.00
2022-11-14T17:07:57.797Z,1.00
2022-11-14T17:13:02.664Z,1.00
2022-11-14T17:18:07.978Z,1.00
2022-11-14T17:23:11.409Z,1.00
2022-11-14T17:28:16.208Z,1.00
2022-11-14T17:33:19.552Z,1.00
2022-11-14T18:10:13.914Z,1.00
2022-11-14T18:16:08.158Z,1.00
2022-11-14T18:46:47.490Z,1.00
2022-11-14T18:59:07.035Z,1.00
2022-11-14T19:48:12.344Z,1.00
2022-11-14T19:53:19.252Z,1.00
2022-11-14T19:58:22.144Z,1.00
2022-11-14T20:03:28.217Z,1.00
2022-11-14T20:08:32.422Z,1.00
2022-11-14T20:13:39.565Z,1.00
2022-11-14T20:18:51.239Z,1.00
2022-11-14T20:23:56.217Z,1.00
2022-11-14T20:29:00.377Z,1.00
2022-11-14T20:34:04.663Z,1.00
2022-11-14T20:39:07.817Z,1.00
2022-11-14T20:44:11.040Z,1.00
2022-11-14T20:49:15.521Z,1.00
2022-11-14T20:54:21.000Z,1.00
2022-11-14T20:59:26.464Z,1.00
2022-11-14T21:04:38.382Z,1.00
2022-11-14T21:09:41.467Z,1.00
2022-11-14T21:14:44.439Z,1.00
2022-11-14T21:19:48.957Z,1.00
2022-11-14T21:24:51.929Z,1.00
2022-11-14T21:29:55.337Z,1.00
2022-11-14T21:35:16.422Z,1.00
2022-11-14T21:52:39.110Z,99.90
2022-11-14T21:57:58.309Z,99.90
2022-11-14T22:03:24.242Z,95.90
2022-11-14T22:08:27.340Z,1.00
2022-11-14T22:13:32.732Z,33.40
2022-11-14T22:18:35.778Z,14.60
2022-11-14T22:23:38.676Z,98.30
2022-11-14T22:28:42.779Z,72.00
2022-11-14T22:33:47.247Z,99.90
2022-11-14T22:38:50.846Z,99.90
2022-11-14T22:43:55.428Z,99.90
2022-11-14T22:48:58.236Z,99.90
2022-11-14T22:54:01.012Z,99.90
2022-11-14T22:59:05.141Z,99.90
2022-11-14T23:04:07.927Z,99.90
2022-11-14T23:09:10.771Z,99.90
2022-11-14T23:14:15.053Z,99.90
2022-11-14T23:19:17.852Z,99.90
2022-11-14T23:24:20.669Z,99.90
2022-11-14T23:29:25.013Z,99.90
2022-11-14T23:34:27.834Z,99.90
2022-11-14T23:39:30.607Z,99.90
2022-11-14T23:44:34.746Z,99.90
2022-11-14T23:49:37.550Z,99.90
2022-11-14T23:54:40.305Z,99.90
2022-11-14T23:59:44.421Z,99.90
